Time;durP1;ratioP1;P1;durP2;ratioP2;P2;SDS_P1;SDS_P2;PMS_P1;PMS_P2;Temp;Humidity;BMP_temperature;BMP_pressure;BME280_temperature;BME280_humidity;BME280_pressure;Samples;Min_cycle;Max_cycle;Signal;HPM_P1;HPM_P2
2022/06/10 00:01:14;;;;;;;1254.60;985.10;;;11.80;84.00;;;;;;4961629;28;20290;-72
2022/06/10 00:03:40;;;;;;;1236.03;999.90;;;11.80;84.00;;;;;;4982635;28;20045;-72
2022/06/10 00:06:07;;;;;;;1302.23;999.90;;;11.70;83.80;;;;;;4958868;28;20306;-72
2022/06/10 00:08:38;;;;;;;1286.13;999.90;;;11.70;84.00;;;;;;4978918;28;20531;-72
2022/06/10 00:11:06;;;;;;;1254.17;999.90;;;11.70;84.00;;;;;;4975524;28;20662;-72
2022/06/10 00:13:34;;;;;;;1257.90;999.90;;;11.60;84.20;;;;;;4979216;28;20289;-72
2022/06/10 00:16:01;;;;;;;1226.37;991.63;;;11.60;84.40;;;;;;4972322;28;20055;-72
2022/06/10 00:18:28;;;;;;;1231.68;999.90;;;11.60;84.40;;;;;;4986559;28;20804;-72
2022/06/10 00:20:55;;;;;;;1418.88;999.90;;;11.60;84.50;;;;;;4974266;28;20133;-72
2022/06/10 00:23:21;;;;;;;1283.28;999.90;;;11.50;84.70;;;;;;4983087;28;20373;-72
2022/06/10 00:25:47;;;;;;;1274.17;999.90;;;11.50;84.80;;;;;;4966925;28;20034;-72
2022/06/10 00:28:14;;;;;;;1301.72;999.90;;;11.50;84.80;;;;;;4981108;28;20056;-72
2022/06/10 00:30:41;;;;;;;1329.20;999.90;;;11.40;85.10;;;;;;4959507;28;20391;-72
2022/06/10 00:33:07;;;;;;;1282.63;999.90;;;11.40;85.10;;;;;;4995746;28;20042;-72
2022/06/10 00:35:33;;;;;;;1289.67;999.90;;;11.40;85.10;;;;;;4977613;28;20300;-72
2022/06/10 00:37:59;;;;;;;1423.68;999.90;;;11.40;85.40;;;;;;4992653;28;20347;-71
2022/06/10 00:40:28;;;;;;;1551.30;999.90;;;11.40;85.40;;;;;;4975235;28;20433;-71
2022/06/10 00:42:56;;;;;;;1359.43;999.90;;;11.40;85.30;;;;;;4980413;28;20515;-71
2022/06/10 00:45:50;;;;;;;1592.55;999.90;;;11.40;85.40;;;;;;4983761;28;20381;-71
2022/06/10 00:48:24;;;;;;;1437.80;999.90;;;11.40;85.40;;;;;;4967121;28;20046;-72
2022/06/10 00:50:50;;;;;;;1446.15;999.90;;;11.40;85.70;;;;;;4976978;28;20495;-72
2022/06/10 00:53:19;;;;;;;1438.37;999.90;;;11.30;85.70;;;;;;4977274;28;20042;-72
2022/06/10 00:55:46;;;;;;;1128.20;999.90;;;11.40;85.60;;;;;;4993332;28;20056;-72
2022/06/10 00:58:16;;;;;;;1159.78;999.90;;;11.40;85.60;;;;;;4980888;28;20046;-72
2022/06/10 01:00:41;;;;;;;1078.00;966.15;;;11.40;85.50;;;;;;4984839;28;20105;-72
2022/06/10 01:03:07;;;;;;;1095.80;982.87;;;11.40;85.70;;;;;;4980462;28;20050;-72
2022/06/10 01:05:34;;;;;;;1125.47;999.90;;;11.30;85.50;;;;;;4981541;28;20524;-72
2022/06/10 01:08:13;;;;;;;1163.03;999.90;;;11.30;85.60;;;;;;4961802;28;20232;-72
2022/06/10 01:11:11;;;;;;;1128.65;999.90;;;11.30;86.00;;;;;;4982851;28;20129;-72
2022/06/10 01:13:52;;;;;;;1124.28;999.55;;;11.30;86.10;;;;;;4980137;28;20061;-72
2022/06/10 01:16:34;;;;;;;1127.75;999.90;;;11.30;86.10;;;;;;4961864;28;20129;-72
2022/06/10 01:19:09;;;;;;;1124.95;999.90;;;11.30;86.20;;;;;;4964344;28;20116;-72
2022/06/10 01:21:46;;;;;;;1141.63;999.90;;;11.30;86.30;;;;;;4974702;28;20046;-72
2022/06/10 01:24:18;;;;;;;1179.40;999.90;;;11.20;86.20;;;;;;4966157;28;20050;-72
2022/06/10 01:30:08;;;;;;;1158.20;997.72;;;11.30;86.50;;;;;;4973351;28;20077;-72
2022/06/10 01:33:04;;;;;;;1145.63;999.90;;;11.20;86.70;;;;;;4979234;28;20042;-72
2022/06/10 01:35:39;;;;;;;1174.30;999.90;;;11.20;86.70;;;;;;4981540;28;20049;-72
2022/06/10 01:38:18;;;;;;;1101.65;978.58;;;11.20;86.60;;;;;;4978863;28;20042;-72
2022/06/10 01:41:01;;;;;;;1156.22;999.90;;;11.20;87.00;;;;;;4978362;28;20592;-72
2022/06/10 01:43:45;;;;;;;1103.13;982.55;;;11.20;86.90;;;;;;4979728;28;20046;-72
2022/06/10 01:46:20;;;;;;;1087.50;968.95;;;11.20;87.50;;;;;;4981643;28;20042;-72
2022/06/10 01:48:50;;;;;;;1097.50;976.53;;;11.10;87.50;;;;;;4979080;28;20039;-72
2022/06/10 01:51:31;;;;;;;1116.22;968.95;;;11.10;87.30;;;;;;4966954;28;20097;-71
2022/06/10 01:54:32;;;;;;;1166.15;992.55;;;11.20;87.50;;;;;;4980166;28;20070;-71
2022/06/10 01:57:01;;;;;;;1071.80;955.38;;;11.20;87.90;;;;;;4978564;28;20825;-72
2022/06/10 01:59:39;;;;;;;1156.57;999.90;;;11.10;87.70;;;;;;4981691;28;20047;-73
2022/06/10 02:02:16;;;;;;;1189.43;991.55;;;11.10;87.60;;;;;;4981007;28;20046;-72
2022/06/10 02:04:56;;;;;;;1139.47;990.60;;;11.10;87.70;;;;;;4994704;28;20043;-72
2022/06/10 02:07:29;;;;;;;1120.57;978.13;;;11.10;87.90;;;;;;4985797;28;20047;-72
2022/06/10 02:10:02;;;;;;;1144.00;998.10;;;11.10;88.00;;;;;;4987792;28;20045;-72
2022/06/10 02:12:39;;;;;;;1115.28;990.38;;;11.10;87.90;;;;;;4967091;28;20093;-72
2022/06/10 02:15:20;;;;;;;1116.63;969.97;;;11.10;88.20;;;;;;4968138;28;20422;-72
2022/06/10 02:17:56;;;;;;;1109.43;967.03;;;11.00;88.30;;;;;;4985415;28;20075;-72
2022/06/10 02:20:26;;;;;;;1209.63;986.92;;;11.00;88.40;;;;;;4969170;28;20050;-73
2022/06/10 02:22:54;;;;;;;1139.50;973.08;;;11.00;88.40;;;;;;4984186;28;20491;-72
2022/06/10 02:25:25;;;;;;;1134.35;994.67;;;11.00;88.50;;;;;;4976427;28;20049;-72
2022/06/10 02:27:56;;;;;;;1149.28;982.63;;;11.00;88.60;;;;;;4983718;28;20051;-72
2022/06/10 02:30:43;;;;;;;1174.50;984.03;;;11.10;88.70;;;;;;4967143;28;20491;-72
2022/06/10 02:33:10;;;;;;;1140.50;999.90;;;11.10;88.70;;;;;;4967639;28;20053;-72
2022/06/10 02:36:04;;;;;;;1226.40;989.92;;;11.10;88.80;;;;;;4983206;28;20057;-72
2022/06/10 02:38:39;;;;;;;1102.90;968.63;;;11.10;88.90;;;;;;4974415;28;20105;-72
2022/06/10 02:41:21;;;;;;;1160.88;998.10;;;11.10;89.10;;;;;;4999343;28;20097;-72
2022/06/10 02:44:01;;;;;;;1162.63;999.90;;;11.10;89.10;;;;;;4979236;28;20352;-72
2022/06/10 02:46:36;;;;;;;1112.95;992.88;;;11.10;89.50;;;;;;4967254;28;20038;-72
2022/06/10 02:49:16;;;;;;;1108.72;986.20;;;11.10;89.40;;;;;;4981636;28;20057;-72
2022/06/10 02:51:42;;;;;;;1147.15;975.47;;;11.10;89.40;;;;;;4982386;28;20125;-72
2022/06/10 02:54:18;;;;;;;1171.60;996.60;;;11.10;89.50;;;;;;4984287;28;20189;-72
2022/06/10 02:56:44;;;;;;;1132.57;978.88;;;11.10;89.60;;;;;;4982933;28;20046;-72
2022/06/10 03:02:20;;;;;;;1111.15;967.95;;;11.10;89.80;;;;;;4980961;28;20090;-72
2022/06/10 03:05:14;;;;;;;1146.35;984.13;;;11.10;89.80;;;;;;4959277;28;20042;-72
2022/06/10 03:07:40;;;;;;;1148.70;998.90;;;11.10;90.10;;;;;;4969068;28;20039;-72
2022/06/10 03:10:28;;;;;;;1132.15;996.05;;;11.10;90.00;;;;;;4969312;28;20069;-72
2022/06/10 03:13:16;;;;;;;1186.65;984.17;;;11.10;90.10;;;;;;4970534;28;20426;-72
2022/06/10 03:16:28;;;;;;;1158.50;996.00;;;11.20;90.00;;;;;;4960990;28;20078;-71
2022/06/10 03:19:22;;;;;;;1176.65;973.47;;;11.20;90.00;;;;;;4975891;28;20042;-71
2022/06/10 03:21:55;;;;;;;1129.25;982.08;;;11.30;89.80;;;;;;4988196;28;20418;-72
2022/06/10 03:24:26;;;;;;;1189.13;999.90;;;11.40;90.00;;;;;;4982644;28;20043;-72
2022/06/10 03:27:06;;;;;;;1177.07;983.45;;;11.40;89.80;;;;;;4981772;28;20173;-72
2022/06/10 03:29:56;;;;;;;1236.82;999.90;;;11.40;89.70;;;;;;4987612;28;20093;-72
2022/06/10 03:32:38;;;;;;;1206.10;999.90;;;11.40;89.60;;;;;;4976830;28;20324;-72
2022/06/10 03:35:25;;;;;;;1184.78;989.30;;;11.50;89.40;;;;;;4974859;28;20043;-73
2022/06/10 03:37:51;;;;;;;1210.65;997.65;;;11.50;89.50;;;;;;4996056;28;20046;-72
2022/06/10 03:40:21;;;;;;;1216.57;999.90;;;11.50;89.50;;;;;;4969272;28;20467;-72
2022/06/10 03:42:50;;;;;;;1189.45;999.72;;;11.50;89.20;;;;;;4970760;28;20074;-72
2022/06/10 03:45:21;;;;;;;1259.95;999.90;;;11.50;89.10;;;;;;4974640;28;20038;-72
2022/06/10 03:47:46;;;;;;;1273.20;993.47;;;11.50;89.20;;;;;;4970786;28;20046;-73
2022/06/10 03:50:20;;;;;;;1305.20;999.90;;;11.50;89.00;;;;;;4986619;28;20043;-72
2022/06/10 03:52:46;;;;;;;1279.38;999.90;;;11.60;88.90;;;;;;4979989;28;20053;-72
2022/06/10 03:55:17;;;;;;;1263.43;999.90;;;11.60;89.00;;;;;;4977780;28;20043;-72
2022/06/10 03:57:44;;;;;;;1221.93;999.90;;;11.70;88.90;;;;;;4993377;28;20557;-72
2022/06/10 04:00:15;;;;;;;1335.88;999.90;;;11.70;88.60;;;;;;4986559;28;20177;-72
2022/06/10 04:02:41;;;;;;;1279.30;999.90;;;11.80;88.50;;;;;;4977295;28;20337;-72
2022/06/10 04:05:08;;;;;;;1291.13;999.90;;;11.90;88.50;;;;;;4986095;28;20121;-72
2022/06/10 04:07:34;;;;;;;1339.78;999.90;;;12.00;88.40;;;;;;4986825;28;20451;-73
2022/06/10 04:10:00;;;;;;;1336.27;999.90;;;12.10;88.00;;;;;;4982139;28;20046;-73
2022/06/10 04:12:26;;;;;;;1363.57;999.03;;;12.20;87.90;;;;;;4967195;28;21043;-73
2022/06/10 04:14:52;;;;;;;1427.00;999.90;;;12.30;87.70;;;;;;4946504;28;20476;-73
2022/06/10 04:17:18;;;;;;;1341.47;999.90;;;12.40;87.80;;;;;;4962531;28;20282;-73
2022/06/10 04:19:44;;;;;;;1335.13;999.90;;;12.40;87.80;;;;;;4978480;28;20042;-73
2022/06/10 04:22:10;;;;;;;1369.20;999.90;;;12.50;87.70;;;;;;4957802;28;20050;-71
2022/06/10 04:24:36;;;;;;;1395.77;999.90;;;12.60;87.50;;;;;;4975077;28;20853;-71
2022/06/10 04:27:02;;;;;;;1482.30;999.90;;;12.60;87.50;;;;;;4962040;28;20446;-72
2022/06/10 04:29:28;;;;;;;1409.90;999.90;;;12.70;87.40;;;;;;4974072;28;20060;-71
2022/06/10 04:31:54;;;;;;;1425.30;999.90;;;12.70;87.30;;;;;;4974118;28;20659;-71
2022/06/10 04:34:19;;;;;;;1438.93;999.90;;;12.70;87.30;;;;;;4975483;28;20285;-71
2022/06/10 04:36:45;;;;;;;1343.53;999.90;;;12.70;87.00;;;;;;4962957;28;20042;-72
2022/06/10 04:39:11;;;;;;;1414.37;999.90;;;12.70;87.10;;;;;;4962375;28;20046;-72
2022/06/10 04:41:38;;;;;;;1344.90;999.00;;;12.70;87.00;;;;;;4974161;28;20059;-72
2022/06/10 04:44:04;;;;;;;1394.83;999.90;;;12.70;87.10;;;;;;4975895;28;20054;-72
2022/06/10 04:46:37;;;;;;;1495.73;999.90;;;12.80;87.10;;;;;;4960638;28;20852;-72
2022/06/10 04:49:03;;;;;;;1569.33;999.90;;;12.80;87.10;;;;;;4978492;28;20292;-71
2022/06/10 04:51:29;;;;;;;1555.80;999.90;;;12.90;87.20;;;;;;4956165;28;20297;-72
2022/06/10 04:53:55;;;;;;;1505.43;999.90;;;13.00;87.10;;;;;;4960259;28;20641;-72
2022/06/10 04:56:21;;;;;;;1490.63;999.90;;;13.10;87.00;;;;;;4940715;28;20039;-72
2022/06/10 04:58:46;;;;;;;1362.13;999.90;;;13.10;87.10;;;;;;4933078;28;20853;-71
2022/06/10 05:01:12;;;;;;;1444.20;999.90;;;13.20;86.80;;;;;;4969223;28;20049;-71
2022/06/10 05:03:38;;;;;;;1569.27;999.90;;;13.20;86.80;;;;;;4971491;28;20074;-72
2022/06/10 05:06:04;;;;;;;1388.53;999.90;;;13.30;86.90;;;;;;4960224;28;20042;-72
2022/06/10 05:08:30;;;;;;;1422.90;999.90;;;13.50;87.10;;;;;;4966355;28;20074;-72
2022/06/10 05:10:56;;;;;;;1523.60;999.90;;;13.70;87.00;;;;;;4972240;28;20329;-72
2022/06/10 05:13:22;;;;;;;1477.53;999.90;;;13.80;86.60;;;;;;4953282;28;20288;-72
2022/06/10 05:15:49;;;;;;;1584.60;999.90;;;13.90;86.20;;;;;;4976009;28;20046;-71
2022/06/10 05:18:23;;;;;;;1497.80;999.90;;;13.90;86.00;;;;;;4983670;28;20392;-71
2022/06/10 05:20:50;;;;;;;1559.70;999.90;;;14.00;86.10;;;;;;4968845;28;20636;-71
2022/06/10 05:23:19;;;;;;;1568.33;999.90;;;14.00;86.30;;;;;;4981727;28;20120;-72
2022/06/10 05:25:45;;;;;;;1595.57;999.90;;;14.10;86.60;;;;;;4965257;28;20860;-72
2022/06/10 05:28:13;;;;;;;1552.57;999.90;;;14.10;87.00;;;;;;4950984;28;20324;-73
2022/06/10 05:30:39;;;;;;;1630.37;999.90;;;14.10;87.10;;;;;;4968888;28;20360;-72
2022/06/10 05:33:06;;;;;;;1585.43;999.90;;;14.10;87.40;;;;;;4954861;28;20922;-72
2022/06/10 05:35:32;;;;;;;1668.70;999.90;;;14.10;87.30;;;;;;4972314;28;20645;-73
2022/06/10 05:37:59;;;;;;;1650.90;999.90;;;14.10;87.30;;;;;;4966205;28;20845;-73
2022/06/10 05:40:28;;;;;;;1625.87;999.90;;;14.10;87.30;;;;;;4965470;28;20538;-72
2022/06/10 05:42:53;;;;;;;1511.50;999.90;;;14.20;87.40;;;;;;4958612;28;20282;-73
2022/06/10 05:45:21;;;;;;;1709.10;999.90;;;14.20;87.40;;;;;;4974753;28;20298;-73
2022/06/10 05:47:49;;;;;;;1663.40;999.90;;;14.20;87.50;;;;;;4979529;28;20046;-73
2022/06/10 05:50:18;;;;;;;1623.63;999.90;;;14.20;87.50;;;;;;4977769;28;20282;-73
2022/06/10 05:52:44;;;;;;;1642.83;999.90;;;14.30;87.70;;;;;;4978065;28;20289;-73
2022/06/10 05:55:11;;;;;;;1589.00;999.90;;;14.30;87.90;;;;;;4976576;28;20286;-73
2022/06/10 05:57:37;;;;;;;1528.30;999.90;;;14.40;88.20;;;;;;4981528;28;20058;-73
2022/06/10 06:00:06;;;;;;;1768.13;999.90;;;14.40;88.30;;;;;;4988676;28;20329;-72
2022/06/10 06:02:32;;;;;;;1713.90;999.90;;;14.40;88.40;;;;;;4971941;28;20348;-72
2022/06/10 06:04:58;;;;;;;1644.40;999.90;;;14.50;88.80;;;;;;4972673;28;20344;-72
2022/06/10 06:07:28;;;;;;;1723.80;999.90;;;14.50;89.30;;;;;;4989250;28;20053;-72
2022/06/10 06:09:54;;;;;;;1893.13;999.90;;;14.50;89.50;;;;;;4972648;28;20044;-72
2022/06/10 06:12:21;;;;;;;1821.23;999.90;;;14.50;89.80;;;;;;4988346;28;20334;-72
2022/06/10 06:14:48;;;;;;;1648.63;999.90;;;14.50;89.70;;;;;;4989253;28;20285;-72
2022/06/10 06:17:15;;;;;;;1686.03;999.90;;;14.50;89.90;;;;;;4989388;28;20278;-72
2022/06/10 06:19:41;;;;;;;1866.27;999.90;;;14.50;89.80;;;;;;4973031;28;20293;-72
2022/06/10 06:22:07;;;;;;;1604.17;999.90;;;14.50;90.10;;;;;;4973274;28;20312;-73
2022/06/10 06:24:34;;;;;;;1612.33;999.90;;;14.50;90.80;;;;;;4987699;28;20057;-73
2022/06/10 06:27:01;;;;;;;1782.03;999.90;;;14.50;90.80;;;;;;4956454;28;20368;-73
2022/06/10 06:29:27;;;;;;;1706.70;999.90;;;14.50;90.80;;;;;;4984506;28;20744;-73
2022/06/10 06:31:53;;;;;;;1687.37;999.90;;;14.50;90.90;;;;;;5003033;28;20372;-73
2022/06/10 06:34:24;;;;;;;1822.70;999.90;;;14.50;91.00;;;;;;4972772;28;20781;-73
2022/06/10 06:36:52;;;;;;;1808.53;999.90;;;14.50;91.10;;;;;;4967912;28;20128;-73
2022/06/10 06:39:20;;;;;;;1639.13;999.90;;;14.50;91.00;;;;;;4952727;28;20556;-73
2022/06/10 06:41:46;;;;;;;1802.90;999.90;;;14.50;91.10;;;;;;4971177;28;20697;-73
2022/06/10 06:44:12;;;;;;;1814.13;999.90;;;14.60;91.20;;;;;;4968853;28;20293;-73
2022/06/10 06:46:40;;;;;;;1783.77;999.90;;;14.60;91.10;;;;;;4970700;28;20302;-73
2022/06/10 06:49:09;;;;;;;1836.40;999.90;;;14.60;91.20;;;;;;4969442;28;20940;-73
2022/06/10 06:51:36;;;;;;;1748.87;999.90;;;14.70;91.20;;;;;;4970872;28;20785;-73
2022/06/10 06:54:02;;;;;;;1923.07;999.90;;;14.70;91.70;;;;;;4985929;28;20376;-72
2022/06/10 06:56:28;;;;;;;1888.50;999.90;;;14.70;91.50;;;;;;4970344;28;20380;-72
2022/06/10 06:58:55;;;;;;;1877.20;999.90;;;14.70;92.30;;;;;;4986024;28;20062;-72
2022/06/10 07:01:21;;;;;;;1848.50;999.90;;;14.80;92.20;;;;;;4970366;28;20661;-72
2022/06/10 07:03:48;;;;;;;1994.97;999.90;;;14.90;92.60;;;;;;4986350;28;20305;-72
2022/06/10 07:06:14;;;;;;;1999.90;999.90;;;15.00;92.90;;;;;;4955298;28;20314;-74
2022/06/10 07:08:40;;;;;;;1966.77;999.90;;;15.10;93.10;;;;;;4986731;28;20046;-74
2022/06/10 07:11:08;;;;;;;1774.67;999.90;;;15.20;93.00;;;;;;4971411;28;20384;-74
2022/06/10 07:13:35;;;;;;;1871.87;999.90;;;15.30;93.00;;;;;;4969625;28;20045;-72
2022/06/10 07:16:02;;;;;;;1999.90;999.90;;;15.30;93.20;;;;;;4970018;28;20277;-72
2022/06/10 07:18:30;;;;;;;1999.90;999.90;;;15.40;93.00;;;;;;4968833;28;20293;-72
2022/06/10 07:20:56;;;;;;;1999.90;999.90;;;15.50;93.30;;;;;;4954388;28;20289;-72
2022/06/10 07:23:22;;;;;;;1999.90;999.90;;;15.50;93.30;;;;;;4967541;28;20289;-72
2022/06/10 07:25:48;;;;;;;1999.90;999.90;;;15.60;93.30;;;;;;4984553;28;20344;-72
2022/06/10 07:28:14;;;;;;;1943.00;999.90;;;15.70;93.60;;;;;;4969736;28;20046;-72
2022/06/10 07:30:41;;;;;;;1999.90;999.90;;;15.70;93.30;;;;;;4985829;28;20046;-72
2022/06/10 07:33:07;;;;;;;1999.90;999.90;;;15.80;93.10;;;;;;4953736;28;20293;-73
2022/06/10 07:35:34;;;;;;;1999.90;999.90;;;15.90;92.60;;;;;;4968546;28;20296;-73
2022/06/10 07:38:00;;;;;;;1946.67;999.90;;;15.90;92.20;;;;;;4967480;28;20355;-73
2022/06/10 07:43:14;;;;;;;1987.50;999.90;;;15.90;92.00;;;;;;4984081;28;20749;-73
2022/06/10 07:45:40;;;;;;;1903.67;999.90;;;15.90;91.90;;;;;;4953463;28;20349;-73
2022/06/10 07:48:06;;;;;;;1957.40;999.90;;;15.90;92.10;;;;;;4984072;28;20038;-73
2022/06/10 07:50:33;;;;;;;1931.50;999.90;;;15.90;92.00;;;;;;4968536;28;20722;-73
2022/06/10 07:52:59;;;;;;;1829.73;999.90;;;16.00;92.00;;;;;;4984959;28;20642;-73
2022/06/10 07:55:25;;;;;;;1999.90;999.90;;;16.10;92.20;;;;;;4967729;28;20285;-73
2022/06/10 07:57:51;;;;;;;1999.40;999.90;;;16.10;91.90;;;;;;4985854;28;20405;-73
2022/06/10 08:00:18;;;;;;;1993.50;999.90;;;16.20;91.90;;;;;;4985637;28;20286;-71
2022/06/10 08:02:43;;;;;;;1998.47;999.90;;;16.20;91.60;;;;;;4985526;28;20667;-71
2022/06/10 08:05:15;;;;;;;1942.23;999.90;;;16.20;91.60;;;;;;4985583;28;20412;-71
2022/06/10 08:07:41;;;;;;;1995.57;999.90;;;16.30;91.10;;;;;;4974912;28;20117;-72
2022/06/10 08:10:20;;;;;;;1999.90;999.90;;;16.30;90.20;;;;;;4952831;28;20293;-72
2022/06/10 08:12:46;;;;;;;1999.90;999.90;;;16.30;90.50;;;;;;4984097;28;20276;-72
2022/06/10 08:15:15;;;;;;;1999.90;999.90;;;16.40;90.10;;;;;;4983495;28;20618;-73
2022/06/10 08:17:41;;;;;;;1923.37;999.90;;;16.40;90.00;;;;;;5001707;28;20804;-73
2022/06/10 08:20:08;;;;;;;1999.90;999.90;;;16.60;90.10;;;;;;4969085;28;20277;-73
2022/06/10 08:22:35;;;;;;;1795.53;999.90;;;16.60;89.50;;;;;;4967784;28;20298;-73
2022/06/10 08:25:05;;;;;;;1833.77;999.90;;;16.70;89.00;;;;;;4982577;28;20314;-73
2022/06/10 08:27:32;;;;;;;1999.90;999.90;;;16.70;88.40;;;;;;4966845;28;20289;-73
2022/06/10 08:29:58;;;;;;;1779.93;999.90;;;16.70;87.80;;;;;;4947616;28;20745;-73
2022/06/10 08:32:24;;;;;;;1909.87;999.90;;;16.80;87.90;;;;;;4969589;28;21115;-73
2022/06/10 08:34:51;;;;;;;1999.90;999.90;;;17.00;87.60;;;;;;4966345;28;20304;-73
2022/06/10 08:37:17;;;;;;;1884.77;999.90;;;17.10;87.00;;;;;;4970316;28;20356;-73
2022/06/10 08:39:43;;;;;;;1821.63;999.90;;;17.00;86.30;;;;;;4947392;28;20805;-73
2022/06/10 08:42:20;;;;;;;1852.37;999.90;;;16.90;85.90;;;;;;4952059;28;20325;-73
2022/06/10 08:44:58;;;;;;;1955.43;999.90;;;16.80;85.80;;;;;;4977193;28;20038;-72
2022/06/10 08:47:45;;;;;;;1814.43;999.90;;;16.80;85.90;;;;;;4964704;28;20297;-72
2022/06/10 08:50:42;;;;;;;1928.60;999.90;;;16.70;85.90;;;;;;4981721;28;20294;-72
2022/06/10 08:53:26;;;;;;;1911.13;999.90;;;16.70;85.60;;;;;;4977287;28;20286;-72
2022/06/10 08:56:03;;;;;;;1837.47;999.90;;;16.80;85.70;;;;;;4990881;28;20644;-72
2022/06/10 08:58:42;;;;;;;1936.33;999.90;;;16.80;85.50;;;;;;4976350;28;20061;-72
2022/06/10 09:01:17;;;;;;;1964.93;999.90;;;16.80;84.80;;;;;;4995152;28;20297;-72
2022/06/10 09:03:53;;;;;;;1767.47;999.90;;;17.00;84.80;;;;;;4982011;28;20860;-73
2022/06/10 09:06:47;;;;;;;1889.33;999.90;;;17.10;84.50;;;;;;4975652;28;20304;-71
2022/06/10 09:09:14;;;;;;;1817.13;999.90;;;17.40;84.30;;;;;;4963240;28;20317;-70
2022/06/10 09:11:51;;;;;;;1742.97;998.83;;;17.70;83.40;;;;;;4976036;28;20733;-72
2022/06/10 09:14:25;;;;;;;1914.03;999.90;;;18.00;82.40;;;;;;4959698;28;20328;-72
2022/06/10 09:17:05;;;;;;;1676.97;999.90;;;18.20;81.00;;;;;;4984236;28;20647;-72
2022/06/10 09:19:57;;;;;;;1973.33;999.90;;;18.30;79.90;;;;;;4984422;28;20030;-72
2022/06/10 09:22:42;;;;;;;1999.90;999.90;;;18.40;78.80;;;;;;4980753;28;20752;-72
2022/06/10 09:25:31;;;;;;;1649.40;999.90;;;18.60;79.60;;;;;;4963115;28;20314;-72
2022/06/10 09:27:59;;;;;;;1876.10;999.90;;;18.70;79.40;;;;;;4978704;28;20539;-72
2022/06/10 09:30:39;;;;;;;1808.63;999.90;;;18.90;79.40;;;;;;4953159;28;20303;-72
2022/06/10 09:33:20;;;;;;;1888.97;999.90;;;19.00;78.30;;;;;;4983999;28;20286;-72
2022/06/10 09:36:00;;;;;;;1768.80;999.90;;;19.10;78.30;;;;;;4973562;28;20554;-72
2022/06/10 09:38:44;;;;;;;1793.43;999.90;;;19.20;77.80;;;;;;4981601;28;20305;-72
2022/06/10 09:41:28;;;;;;;1781.37;999.90;;;19.10;76.90;;;;;;4984651;28;20376;-72
2022/06/10 09:44:00;;;;;;;1721.70;999.90;;;18.90;76.20;;;;;;4985956;28;20046;-72
2022/06/10 09:46:58;;;;;;;1881.37;999.90;;;18.70;76.60;;;;;;4981312;28;20308;-71
2022/06/10 09:49:45;;;;;;;1856.30;999.90;;;18.60;76.00;;;;;;4964348;28;20050;-73
2022/06/10 09:52:43;;;;;;;1768.40;999.90;;;18.50;77.40;;;;;;4983596;28;20289;-73
2022/06/10 09:55:36;;;;;;;1837.27;999.90;;;18.50;77.80;;;;;;4961034;28;20515;-73
2022/06/10 09:58:46;;;;;;;1994.43;999.90;;;18.50;77.70;;;;;;4982010;28;20330;-73
2022/06/10 10:01:40;;;;;;;1680.20;999.90;;;18.60;77.20;;;;;;4982461;28;20099;-72
2022/06/10 10:04:28;;;;;;;1999.90;999.90;;;18.70;76.40;;;;;;4979368;28;20058;-72
2022/06/10 10:07:04;;;;;;;1759.63;999.90;;;18.80;76.90;;;;;;4974216;28;20520;-72
2022/06/10 10:09:41;;;;;;;1846.73;999.90;;;18.90;76.90;;;;;;4980639;28;20125;-73
2022/06/10 10:12:29;;;;;;;1996.07;999.90;;;18.90;77.00;;;;;;4973659;28;20046;-73
2022/06/10 10:15:21;;;;;;;1995.50;999.90;;;18.80;76.40;;;;;;4983620;28;20066;-72
2022/06/10 10:17:53;;;;;;;1709.73;999.90;;;18.70;77.40;;;;;;4982480;28;20381;-73
2022/06/10 10:20:37;;;;;;;1962.40;999.90;;;18.70;77.60;;;;;;4978022;28;20464;-73
2022/06/10 10:23:12;;;;;;;1973.30;999.90;;;18.70;76.40;;;;;;4979630;28;20104;-73
2022/06/10 10:25:40;;;;;;;1918.33;999.90;;;18.70;77.30;;;;;;4982412;28;20129;-73
2022/06/10 10:28:29;;;;;;;1819.13;999.90;;;19.00;77.20;;;;;;4982514;28;20042;-73
2022/06/10 10:31:01;;;;;;;1999.90;999.90;;;19.00;77.60;;;;;;4962176;28;20119;-73
2022/06/10 10:33:27;;;;;;;1999.90;999.90;;;19.00;77.90;;;;;;4958629;28;20420;-73
2022/06/10 10:35:56;;;;;;;1897.23;999.90;;;19.00;78.50;;;;;;4979759;28;20073;-73
2022/06/10 10:38:28;;;;;;;1987.97;999.90;;;19.30;79.10;;;;;;4984019;28;20052;-73
2022/06/10 10:40:54;;;;;;;1805.83;999.90;;;19.60;77.70;;;;;;4980633;28;20406;-74
2022/06/10 10:43:24;;;;;;;1813.97;999.90;;;20.00;77.00;;;;;;4969697;28;20042;-73
2022/06/10 10:45:56;;;;;;;1945.97;999.90;;;20.40;76.10;;;;;;4984546;28;20042;-73
2022/06/10 10:48:31;;;;;;;1999.90;999.90;;;20.80;74.10;;;;;;4973870;28;20045;-73
2022/06/10 10:51:11;;;;;;;1999.90;999.90;;;21.00;73.20;;;;;;4981493;28;20050;-73
2022/06/10 10:53:41;;;;;;;1999.90;999.90;;;21.20;71.80;;;;;;4981964;28;20046;-73
2022/06/10 10:56:12;;;;;;;1933.53;999.90;;;21.30;71.20;;;;;;4982568;28;20046;-73
2022/06/10 10:58:46;;;;;;;1934.33;999.90;;;21.50;71.10;;;;;;4984244;28;20317;-73
2022/06/10 11:01:43;;;;;;;1706.20;999.90;;;21.60;70.40;;;;;;4958641;28;20088;-73
2022/06/10 11:03:59;;;;;;;1833.80;999.90;;;21.50;69.30;;;;;;4970309;28;20090;-73
2022/06/10 11:06:32;;;;;;;1926.23;999.90;;;21.50;69.80;;;;;;4973905;28;20089;-73
2022/06/10 11:09:14;;;;;;;1708.43;999.90;;;21.20;69.00;;;;;;4959522;28;20038;-73
2022/06/10 11:11:42;;;;;;;1817.53;999.90;;;21.20;69.00;;;;;;4978898;28;20042;-73
2022/06/10 11:14:29;;;;;;;1736.83;999.90;;;21.40;69.60;;;;;;4954458;28;20057;-73
2022/06/10 11:17:13;;;;;;;1741.67;999.90;;;21.70;68.00;;;;;;4969270;28;20070;-74
2022/06/10 11:19:46;;;;;;;1795.87;999.90;;;22.20;67.20;;;;;;4960641;28;20054;-73
2022/06/10 11:22:28;;;;;;;1777.03;999.90;;;22.60;66.30;;;;;;4982588;28;20049;-73
2022/06/10 11:25:03;;;;;;;1833.83;999.90;;;22.90;64.50;;;;;;4980587;28;20399;-73
2022/06/10 11:27:32;;;;;;;1996.93;999.90;;;23.10;63.90;;;;;;4972879;28;20050;-73
2022/06/10 11:30:06;;;;;;;1999.90;999.90;;;23.20;63.30;;;;;;4956999;28;20055;-73
2022/06/10 11:32:35;;;;;;;1797.10;999.90;;;23.20;63.60;;;;;;4990569;28;20609;-73
2022/06/10 11:35:25;;;;;;;1733.17;999.90;;;23.30;62.50;;;;;;4979915;28;20418;-73
2022/06/10 11:37:56;;;;;;;1875.43;999.90;;;23.20;62.00;;;;;;4979414;28;20070;-73
2022/06/10 11:40:27;;;;;;;1715.53;999.90;;;22.80;61.60;;;;;;4979764;28;20058;-73
2022/06/10 11:43:04;;;;;;;1779.43;999.90;;;22.50;62.90;;;;;;4968590;28;20424;-73
2022/06/10 11:45:41;;;;;;;1869.50;999.90;;;22.10;63.80;;;;;;4981982;28;20077;-73
2022/06/10 11:48:26;;;;;;;1854.53;999.90;;;21.80;64.40;;;;;;4992579;28;20053;-73
2022/06/10 11:50:58;;;;;;;;;;;21.60;64.90;;;;;;4972586;28;20092;-74
2022/06/10 11:53:47;;;;;;;1611.07;999.90;;;22.00;65.90;;;;;;4995797;28;20313;-74
2022/06/10 12:00:09;;;;;;;1727.07;999.90;;;22.80;63.70;;;;;;4950191;28;20432;-73
2022/06/10 12:03:06;;;;;;;1677.53;999.90;;;23.00;62.20;;;;;;4945923;28;20097;-73
2022/06/10 12:05:41;;;;;;;1976.53;999.90;;;22.90;63.10;;;;;;4981554;28;20060;-72
2022/06/10 12:08:29;;;;;;;1840.67;999.90;;;22.90;63.60;;;;;;4967217;28;20125;-72
2022/06/10 12:11:05;;;;;;;1734.30;999.90;;;22.50;62.40;;;;;;4973892;28;20125;-72
2022/06/10 12:13:41;;;;;;;1622.47;999.90;;;22.10;62.70;;;;;;4982191;28;20467;-72
2022/06/10 12:16:09;;;;;;;1524.13;999.90;;;21.80;63.30;;;;;;4963199;28;20449;-72
2022/06/10 12:18:48;;;;;;;1727.87;999.90;;;21.50;63.90;;;;;;4978456;28;20038;-72
2022/06/10 12:21:22;;;;;;;1779.53;999.90;;;21.10;65.00;;;;;;4993556;28;20039;-72
2022/06/10 12:23:48;;;;;;;1747.80;999.90;;;20.80;66.50;;;;;;4982400;28;20046;-72
2022/06/10 12:26:52;;;;;;;1539.23;999.90;;;20.70;67.40;;;;;;4956686;28;20129;-72
2022/06/10 12:29:35;;;;;;;1677.27;999.90;;;20.60;67.00;;;;;;4953835;28;20504;-73
2022/06/10 12:32:25;;;;;;;1740.30;999.90;;;20.60;66.80;;;;;;4968134;28;20043;-72
2022/06/10 12:34:59;;;;;;;1686.30;999.90;;;20.50;67.10;;;;;;4977459;28;20043;-72
2022/06/10 12:37:45;;;;;;;1817.87;999.90;;;20.60;68.00;;;;;;4951282;28;20056;-72
2022/06/10 12:40:36;;;;;;;1999.90;999.90;;;20.80;68.60;;;;;;4971819;28;20569;-73